Time;durP1;ratioP1;P1;durP2;ratioP2;P2;SDS_P1;SDS_P2;PMS_P1;PMS_P2;Temp;Humidity;BMP_temperature;BMP_pressure;BME280_temperature;BME280_humidity;BME280_pressure;Samples;Min_cycle;Max_cycle;Signal;HPM_P1;HPM_P2
2023/07/05 00:00:23;;;;;;;;;8.33;8.00;;;;;16.71;77.00;100360.41;5049254;28;9385;-65
2023/07/05 00:02:50;;;;;;;;;10.00;7.00;;;;;16.69;77.28;100384.31;5046247;28;9419;-65
2023/07/05 00:05:17;;;;;;;;;7.00;6.67;;;;;16.72;77.46;100386.53;5043579;28;9360;-64
2023/07/05 00:07:44;;;;;;;;;9.33;8.00;;;;;16.71;77.83;100382.16;5050481;28;9216;-65
2023/07/05 00:10:11;;;;;;;;;3.00;3.00;;;;;16.64;77.22;100370.63;5049103;28;9313;-64
2023/07/05 00:12:37;;;;;;;;;8.00;8.00;;;;;16.63;77.47;100349.13;5048479;28;9297;-65
2023/07/05 00:15:05;;;;;;;;;10.67;8.67;;;;;16.66;77.72;100344.03;5051547;28;9361;-64
2023/07/05 00:17:35;;;;;;;;;10.00;10.00;;;;;16.66;77.28;100344.03;5061436;28;9444;-64
2023/07/05 00:20:05;;;;;;;;;17.50;15.00;;;;;16.60;77.23;100323.28;5037505;28;9493;-64
2023/07/05 00:22:32;;;;;;;;;10.50;10.50;;;;;16.54;77.23;100316.13;5043172;28;9521;-64
2023/07/05 00:25:01;;;;;;;;;8.25;8.25;;;;;16.53;77.29;100312.59;5052192;28;9437;-65
2023/07/05 00:27:28;;;;;;;;;9.33;8.67;;;;;16.47;77.44;100296.44;5049870;28;9366;-65
2023/07/05 00:29:55;;;;;;;;;14.00;12.50;;;;;16.38;77.74;100296.03;5046363;28;9369;-65
2023/07/05 00:32:21;;;;;;;;;10.50;10.00;;;;;16.40;78.15;100284.91;5048811;28;9458;-64
2023/07/05 00:34:48;;;;;;;;;13.50;11.75;;;;;16.40;78.39;100269.41;5048561;28;9441;-64
2023/07/05 00:37:15;;;;;;;;;16.75;13.75;;;;;16.39;78.06;100253.38;5047015;28;9910;-64
2023/07/05 00:39:41;;;;;;;;;9.25;9.25;;;;;16.35;78.19;100244.06;5046476;28;9517;-65
2023/07/05 00:42:08;;;;;;;;;12.75;12.75;;;;;16.36;78.71;100253.88;5048109;28;9527;-65
2023/07/05 00:44:35;;;;;;;;;12.00;10.25;;;;;16.39;79.18;100256.91;5063986;28;10321;-64
2023/07/05 00:47:32;;;;;;;;;15.00;12.50;;;;;16.44;78.18;100239.88;5045283;28;9750;-64
2023/07/05 00:50:14;;;;;;;;;13.75;11.75;;;;;16.35;78.74;100220.44;5041512;28;9643;-64
2023/07/05 00:52:42;;;;;;;;;16.75;15.25;;;;;16.35;79.40;100201.44;5048709;28;9531;-64
2023/07/05 00:55:09;;;;;;;;;13.25;11.75;;;;;16.35;79.31;100196.00;5048135;28;9677;-64
2023/07/05 00:57:37;;;;;;;;;14.25;11.75;;;;;16.37;79.53;100176.75;5081082;28;9601;-64
2023/07/05 01:00:09;;;;;;;;;11.25;9.25;;;;;16.39;79.65;100170.00;5045151;28;9519;-65
2023/07/05 01:02:39;;;;;;;;;14.00;12.00;;;;;16.38;79.54;100154.78;5042509;28;9513;-65
2023/07/05 01:05:09;;;;;;;;;15.00;14.75;;;;;16.39;79.14;100137.41;5065554;28;9523;-64
2023/07/05 01:07:37;;;;;;;;;13.25;12.50;;;;;16.34;79.52;100137.31;5045969;28;10572;-63
2023/07/05 01:10:07;;;;;;;;;16.25;13.75;;;;;16.30;80.13;100137.00;5055076;28;9663;-64
2023/07/05 01:12:54;;;;;;;;;11.00;10.00;;;;;16.32;80.54;100134.03;5047662;28;9589;-64
2023/07/05 01:15:34;;;;;;;;;12.00;11.50;;;;;16.36;80.09;100137.88;5039761;28;9384;-63
2023/07/05 01:18:22;;;;;;;;;14.00;12.50;;;;;16.38;80.84;100122.19;5044631;28;9500;-64
2023/07/05 01:21:18;;;;;;;;;11.50;10.00;;;;;16.39;80.66;100115.66;5044717;28;9521;-64
2023/07/05 01:23:58;;;;;;;;;11.25;9.25;;;;;16.43;80.97;100105.13;5050057;28;9630;-64
2023/07/05 01:26:55;;;;;;;;;9.75;9.50;;;;;16.41;80.99;100096.41;5049395;28;9507;-64
2023/07/05 01:29:35;;;;;;;;;10.67;10.00;;;;;16.40;81.72;100092.84;5058676;28;9396;-65
2023/07/05 01:32:21;;;;;;;;;14.25;11.50;;;;;16.39;81.88;100093.13;5051421;28;9332;-64
2023/07/05 01:35:05;;;;;;;;;10.50;10.50;;;;;16.37;82.26;100073.53;5050773;28;9448;-63
2023/07/05 01:37:31;;;;;;;;;12.00;10.50;;;;;16.39;82.63;100071.38;5053768;28;9372;-64
2023/07/05 01:39:58;;;;;;;;;7.00;6.33;;;;;16.39;82.80;100063.22;5046012;28;9378;-64
2023/07/05 01:42:32;;;;;;;;;8.00;6.67;;;;;16.40;83.02;100064.88;5053148;28;9160;-64
2023/07/05 01:44:59;;;;;;;;;11.00;8.75;;;;;16.44;83.59;100066.00;5040477;28;9495;-66
2023/07/05 01:48:06;;;;;;;;;11.00;8.33;;;;;16.46;83.26;100055.72;5045981;28;9468;-65
2023/07/05 01:50:41;;;;;;;;;6.50;6.50;;;;;16.51;83.74;100077.53;5047174;28;9293;-64
2023/07/05 01:53:20;;;;;;;;;8.33;8.00;;;;;16.46;82.94;100064.69;5052054;28;9366;-64
2023/07/05 01:56:01;;;;;;;;;7.67;6.00;;;;;16.44;83.18;100057.84;5046138;28;9427;-63
2023/07/05 01:58:35;;;;;;;;;7.67;6.33;;;;;16.44;84.02;100055.97;5016732;28;9241;-64
2023/07/05 02:01:04;;;;;;;;;6.00;6.00;;;;;16.48;84.20;100048.13;5045742;28;9319;-63
2023/07/05 02:03:32;;;;;;;;;4.33;3.00;;;;;16.49;83.98;100041.66;5044620;28;9156;-64
2023/07/05 02:05:59;;;;;;;;;5.67;5.33;;;;;16.51;84.30;100031.34;5038484;28;9289;-64
2023/07/05 02:08:29;;;;;;;;;4.33;3.67;;;;;16.55;84.20;100037.91;5040901;28;9155;-64
2023/07/05 02:10:55;;;;;;;;;6.33;5.00;;;;;16.55;84.39;100038.72;5046980;28;9238;-63
2023/07/05 02:13:22;;;;;;;;;3.00;3.00;;;;;16.55;84.17;100049.59;5047268;28;9216;-64
2023/07/05 02:15:50;;;;;;;;;5.33;4.67;;;;;16.59;84.47;100059.97;5049034;28;9162;-64
2023/07/05 02:18:17;;;;;;;;;7.33;6.33;;;;;16.59;84.03;100057.25;5045860;28;9164;-64
2023/07/05 02:20:44;;;;;;;;;2.67;2.67;;;;;16.55;83.93;100055.03;5045821;28;9156;-64
2023/07/05 02:23:11;;;;;;;;;3.00;3.00;;;;;16.50;83.11;100054.97;5054377;28;9212;-63
2023/07/05 02:25:38;;;;;;;;;3.00;3.00;;;;;16.45;83.11;100038.63;5047266;28;9062;-64
2023/07/05 02:28:08;;;;;;;;;2.00;2.00;;;;;16.32;82.41;100037.06;5056571;28;9078;-65
2023/07/05 02:30:40;;;;;;;;;2.00;1.00;;;;;16.23;82.27;100032.34;5041367;28;9169;-64
2023/07/05 02:33:07;;;;;;;;;2.67;2.00;;;;;16.25;82.10;100043.78;5046274;28;9086;-64
2023/07/05 02:35:38;;;;;;;;;2.00;2.00;;;;;16.24;81.69;100031.25;5047127;28;9406;-64
2023/07/05 02:38:06;;;;;;;;;2.67;2.67;;;;;16.26;81.64;100042.69;5043689;28;9141;-64
2023/07/05 02:40:32;;;;;;;;;0.67;0.67;;;;;16.19;80.57;100033.91;5045978;28;9240;-64
2023/07/05 02:43:00;;;;;;;;;3.33;2.00;;;;;16.10;80.54;100044.38;5090799;28;8969;-64
2023/07/05 02:45:27;;;;;;;;;2.00;2.00;;;;;16.00;80.39;100036.06;5079287;28;9140;-64
2023/07/05 02:47:54;;;;;;;;;1.33;1.33;;;;;15.93;80.01;100039.00;5040873;28;9781;-64
2023/07/05 02:50:22;;;;;;;;;1.00;1.00;;;;;15.89;80.20;100034.31;5030355;28;9218;-64
2023/07/05 02:52:49;;;;;;;;;2.00;1.33;;;;;15.89;79.88;100040.56;5047963;28;9289;-64
2023/07/05 02:55:15;;;;;;;;;1.67;1.67;;;;;15.92;79.89;100033.78;5045791;28;9168;-64
2023/07/05 02:57:42;;;;;;;;;2.00;2.00;;;;;15.92;80.13;100028.38;5049854;28;9015;-64
2023/07/05 03:00:10;;;;;;;;;1.67;1.00;;;;;15.93;79.76;100030.84;5091202;28;8994;-64
2023/07/05 03:02:37;;;;;;;;;2.00;2.00;;;;;15.92;80.09;100017.50;5054221;28;9091;-62
2023/07/05 03:05:08;;;;;;;;;2.33;2.33;;;;;15.85;79.76;100023.13;5059999;28;9159;-64
2023/07/05 03:07:35;;;;;;;;;3.00;3.00;;;;;15.79;79.62;100015.97;5064940;28;9231;-63
2023/07/05 03:10:02;;;;;;;;;7.00;6.00;;;;;15.63;79.67;100031.16;5055180;28;9237;-64
2023/07/05 03:12:29;;;;;;;;;7.00;5.00;;;;;15.62;80.00;100029.53;5051366;28;9284;-64
2023/07/05 03:14:55;;;;;;;;;6.33;6.33;;;;;15.51;79.40;100030.41;5055154;28;9217;-65
2023/07/05 03:17:22;;;;;;;;;6.00;6.00;;;;;15.44;79.43;100027.88;5050798;28;9331;-63
2023/07/05 03:19:50;;;;;;;;;7.25;7.25;;;;;15.41;79.16;100024.84;5051627;28;9371;-64
2023/07/05 03:22:18;;;;;;;;;7.50;5.25;;;;;15.36;79.14;100027.47;5048264;28;9463;-67
2023/07/05 03:24:45;;;;;;;;;10.25;8.00;;;;;15.33;79.06;100017.94;5049871;28;9529;-64
2023/07/05 03:27:12;;;;;;;;;9.50;8.25;;;;;15.28;78.83;100021.38;5047522;28;10360;-67
2023/07/05 03:29:39;;;;;;;;;7.25;7.00;;;;;15.24;78.05;100017.53;5052791;22;9705;-65
2023/07/05 03:32:07;;;;;;;;;7.75;7.50;;;;;15.27;78.05;100032.47;5045787;28;9755;-64
2023/07/05 03:34:34;;;;;;;;;3.67;3.00;;;;;15.19;78.27;100024.72;5047941;28;9466;-65
2023/07/05 03:37:00;;;;;;;;;7.50;4.75;;;;;15.13;78.38;100023.81;5034485;28;9366;-66
2023/07/05 03:39:27;;;;;;;;;5.00;3.75;;;;;15.16;78.46;100020.63;5028932;28;9466;-65
2023/07/05 03:41:53;;;;;;;;;7.50;5.00;;;;;15.15;78.55;100018.16;5042006;28;9566;-65
2023/07/05 03:44:22;;;;;;;;;3.00;3.00;;;;;15.17;78.83;100022.28;5031709;28;9448;-65
2023/07/05 03:46:49;;;;;;;;;6.25;6.25;;;;;15.16;78.63;100028.75;5024210;28;9616;-65
2023/07/05 03:49:16;;;;;;;;;6.00;5.00;;;;;15.03;79.34;100016.34;5031747;28;9451;-64
2023/07/05 03:51:43;;;;;;;;;5.00;5.00;;;;;15.01;79.04;100021.16;5029304;28;10153;-66
2023/07/05 03:54:10;;;;;;;;;5.00;5.00;;;;;14.97;79.41;100017.31;5030083;28;9458;-65
2023/07/05 03:56:37;;;;;;;;;4.75;4.75;;;;;14.99;79.49;100000.78;5030218;28;9450;-66
2023/07/05 03:59:04;;;;;;;;;6.25;6.25;;;;;14.93;79.12;100009.91;5032194;28;9555;-64
2023/07/05 04:01:31;;;;;;;;;7.50;3.75;;;;;14.92;79.15;100002.84;5024683;28;9610;-65
2023/07/05 04:04:00;;;;;;;;;2.33;2.33;;;;;15.00;79.50;99997.03;5020345;28;9547;-65
2023/07/05 04:06:32;;;;;;;;;3.00;3.00;;;;;15.01;79.28;99985.13;5038216;28;9461;-64
2023/07/05 04:08:59;;;;;;;;;6.25;5.25;;;;;14.96;79.47;99990.47;5037650;28;9526;-64
2023/07/05 04:11:26;;;;;;;;;3.75;3.75;;;;;14.94;79.33;100000.69;5028121;28;9596;-63
2023/07/05 04:13:54;;;;;;;;;5.00;5.00;;;;;14.91;78.92;99990.34;5034719;28;9523;-64
2023/07/05 04:16:24;;;;;;;;;4.50;3.75;;;;;14.89;78.57;99997.91;5030618;28;9482;-65
2023/07/05 04:18:53;;;;;;;;;5.00;4.25;;;;;14.87;78.78;99970.22;5024636;28;9467;-64
2023/07/05 04:21:21;;;;;;;;;4.75;3.75;;;;;14.83;78.63;99973.44;5021731;28;9536;-64
2023/07/05 04:23:47;;;;;;;;;4.75;4.75;;;;;14.79;78.30;99979.59;5046068;28;9455;-66
2023/07/05 04:26:17;;;;;;;;;3.75;3.50;;;;;14.77;78.24;99965.44;5031438;28;10353;-64
2023/07/05 04:28:44;;;;;;;;;2.50;2.50;;;;;14.86;78.94;99988.38;5027898;28;9445;-65
2023/07/05 04:31:15;;;;;;;;;4.50;3.50;;;;;14.83;78.70;99964.50;5030227;28;9560;-64
2023/07/05 04:33:41;;;;;;;;;3.00;2.25;;;;;14.81;79.33;99991.81;5024430;28;9670;-64
2023/07/05 04:36:08;;;;;;;;;3.00;3.00;;;;;14.74;79.32;99993.84;5029089;28;9464;-65
2023/07/05 04:38:52;;;;;;;;;2.00;2.00;;;;;14.80;79.51;100006.44;5024729;28;9526;-65
2023/07/05 04:41:18;;;;;;;;;5.00;5.00;;;;;14.73;79.44;99994.09;5021725;28;9540;-66
2023/07/05 04:43:45;;;;;;;;;2.25;2.00;;;;;14.67;80.18;99974.22;5028632;28;9602;-64
2023/07/05 04:46:11;;;;;;;;;3.50;3.50;;;;;14.70;79.99;99978.31;5046237;28;10256;-64
2023/07/05 04:48:38;;;;;;;;;2.75;2.75;;;;;14.75;80.00;99983.84;5020726;28;9543;-64
2023/07/05 04:51:05;;;;;;;;;2.00;2.00;;;;;14.79;80.07;99988.53;5026692;28;9383;-66
2023/07/05 04:53:32;;;;;;;;;1.33;1.33;;;;;14.80;80.00;99982.03;5045784;28;9408;-64
2023/07/05 04:56:00;;;;;;;;;4.00;2.00;;;;;14.80;79.73;99975.81;5028652;28;9317;-65
2023/07/05 04:58:26;;;;;;;;;2.00;2.00;;;;;14.72;79.75;99974.31;5025179;28;9384;-65
2023/07/05 05:01:02;;;;;;;;;1.33;1.33;;;;;14.68;80.25;99969.63;5028463;28;9352;-64
2023/07/05 05:03:29;;;;;;;;;2.00;2.00;;;;;14.66;80.50;99977.97;5021417;28;9322;-64
2023/07/05 05:05:56;;;;;;;;;2.00;2.00;;;;;14.66;80.71;99974.44;5030108;28;9343;-64
2023/07/05 05:08:24;;;;;;;;;2.00;2.00;;;;;14.65;80.51;99973.63;5028912;28;10085;-66
2023/07/05 05:10:55;;;;;;;;;1.00;1.00;;;;;14.62;79.98;99959.75;5043872;28;9436;-65
2023/07/05 05:13:23;;;;;;;;;1.00;1.00;;;;;14.56;80.42;99967.78;5013269;28;9429;-65
2023/07/05 05:15:50;;;;;;;;;1.33;1.00;;;;;14.59;80.49;99967.31;5027921;28;9409;-65
2023/07/05 05:18:17;;;;;;;;;0.00;0.00;;;;;14.57;79.87;99968.59;5042341;28;9264;-65
2023/07/05 05:20:44;;;;;;;;;0.00;0.00;;;;;14.54;80.45;99958.25;5024283;28;9392;-65
2023/07/05 05:23:11;;;;;;;;;1.00;1.00;;;;;14.54;80.38;99969.06;5030296;28;9190;-64
2023/07/05 05:25:42;;;;;;;;;1.67;1.00;;;;;14.46;80.27;99966.72;5040108;28;9309;-65
2023/07/05 05:28:09;;;;;;;;;0.33;0.33;;;;;14.34;80.97;99951.38;5042096;28;9505;-64
2023/07/05 05:30:36;;;;;;;;;2.33;1.00;;;;;14.44;81.13;99947.19;5035367;28;9241;-64
2023/07/05 05:33:03;;;;;;;;;5.25;3.50;;;;;14.45;80.28;99930.69;5031701;28;9198;-66
2023/07/05 05:35:34;;;;;;;;;2.00;2.00;;;;;14.41;80.23;99929.53;5024317;28;9389;-66
2023/07/05 05:38:02;;;;;;;;;2.67;1.00;;;;;14.34;79.62;99929.72;5024640;28;9332;-66
2023/07/05 05:40:29;;;;;;;;;3.00;0.67;;;;;14.31;79.86;99935.59;5031162;28;9313;-64
2023/07/05 05:42:59;;;;;;;;;3.00;3.00;;;;;14.26;79.62;99945.47;5025901;28;9161;-65
2023/07/05 05:45:25;;;;;;;;;1.00;1.00;;;;;13.99;79.04;99945.22;5035041;28;9331;-65
2023/07/05 05:47:52;;;;;;;;;2.00;1.00;;;;;13.83;79.28;99961.13;5026801;28;9374;-67
2023/07/05 05:50:22;;;;;;;;;2.00;2.00;;;;;13.77;80.11;99950.41;5022867;28;9293;-68
2023/07/05 05:52:49;;;;;;;;;1.00;1.00;;;;;13.74;79.94;99938.19;5025265;28;9397;-63
2023/07/05 05:55:15;;;;;;;;;1.00;1.00;;;;;13.55;79.50;99934.81;5028142;28;9440;-65
2023/07/05 05:57:42;;;;;;;;;3.25;1.50;;;;;13.48;79.02;99925.97;5025960;28;9587;-64
2023/07/05 06:00:09;;;;;;;;;5.00;1.50;;;;;13.55;79.67;99931.28;5025644;28;9544;-66
2023/07/05 06:02:37;;;;;;;;;3.00;2.00;;;;;13.51;78.73;99933.63;5028282;28;9733;-67
2023/07/05 06:05:04;;;;;;;;;2.00;2.00;;;;;13.44;79.07;99919.41;5027742;28;10201;-66
2023/07/05 06:07:31;;;;;;;;;0.75;0.50;;;;;13.39;79.30;99903.06;5033732;28;9687;-65
2023/07/05 06:09:57;;;;;;;;;2.00;1.00;;;;;13.33;79.53;99901.31;5049841;28;9699;-64
2023/07/05 06:12:24;;;;;;;;;1.50;1.50;;;;;13.08;78.92;99896.09;5049488;28;9665;-64
2023/07/05 06:14:50;;;;;;;;;1.00;1.00;;;;;13.04;80.20;99884.91;5041624;28;9798;-66
2023/07/05 06:17:17;;;;;;;;;3.00;1.00;;;;;12.88;79.62;99866.69;5010123;28;9549;-64
2023/07/05 06:19:43;;;;;;;;;1.00;1.00;;;;;12.74;79.55;99858.00;5010022;28;9777;-65
2023/07/05 06:22:10;;;;;;;;;0.00;0.00;;;;;12.74;79.85;99852.59;5008714;28;9679;-65
2023/07/05 06:24:36;;;;;;;;;2.00;1.50;;;;;12.70;79.90;99816.31;5010146;28;9831;-64
2023/07/05 06:27:03;;;;;;;;;0.00;0.00;;;;;12.66;79.71;99808.94;5010071;28;9852;-65
2023/07/05 06:29:30;;;;;;;;;0.50;0.50;;;;;12.62;80.37;99789.66;5009880;28;9723;-65
2023/07/05 06:31:56;;;;;;;;;0.00;0.00;;;;;12.54;79.65;99781.91;5010849;28;9593;-65
2023/07/05 06:34:24;;;;;;;;;0.50;0.00;;;;;12.41;81.15;99766.75;5013803;28;9761;-65
2023/07/05 06:36:51;;;;;;;;;0.75;0.75;;;;;12.36;81.52;99775.56;5013848;28;9760;-63
2023/07/05 06:39:18;;;;;;;;;1.00;0.00;;;;;12.31;82.46;99777.28;5021941;28;9782;-65
2023/07/05 06:41:47;;;;;;;;;1.75;1.75;;;;;12.32;83.05;99768.16;5015455;28;9737;-66
2023/07/05 06:44:13;;;;;;;;;1.00;1.00;;;;;12.40;83.04;99791.25;5029587;28;10175;-65
2023/07/05 06:46:40;;;;;;;;;1.25;0.25;;;;;12.40;83.29;99796.66;5026828;28;9891;-65
2023/07/05 06:49:06;;;;;;;;;1.00;0.25;;;;;12.38;83.90;99765.34;5033013;28;9847;-64
2023/07/05 06:51:33;;;;;;;;;1.50;1.50;;;;;12.41;85.54;99782.97;5030609;28;9919;-65
2023/07/05 06:53:59;;;;;;;;;3.25;2.50;;;;;12.49;86.39;99790.72;5023137;28;9927;-66
2023/07/05 06:56:26;;;;;;;;;4.50;2.00;;;;;12.55;85.91;99751.16;5030376;28;9923;-64
2023/07/05 06:58:52;;;;;;;;;4.00;2.50;;;;;12.55;86.56;99805.97;5026823;28;10024;-64
2023/07/05 07:01:19;;;;;;;;;3.25;1.75;;;;;12.63;86.99;99794.81;5022769;28;9980;-64
2023/07/05 07:03:45;;;;;;;;;2.75;2.75;;;;;12.69;86.25;99803.88;5033832;28;9752;-64
2023/07/05 07:06:12;;;;;;;;;2.75;1.75;;;;;12.72;86.38;99822.31;5025518;28;10103;-66
2023/07/05 07:08:38;;;;;;;;;2.00;1.75;;;;;12.78;86.56;99802.47;5033177;28;9748;-65
2023/07/05 07:11:07;;;;;;;;;7.50;4.00;;;;;12.79;86.32;99806.81;5039083;28;9840;-64
2023/07/05 07:13:34;;;;;;;;;3.00;2.00;;;;;12.73;85.93;99831.25;5029938;28;10024;-67
2023/07/05 07:16:04;;;;;;;;;3.00;2.50;;;;;12.72;86.47;99848.47;5040742;28;9866;-66
2023/07/05 07:18:31;;;;;;;;;2.75;1.00;;;;;12.65;86.28;99843.22;5024226;28;9867;-65
2023/07/05 07:20:59;;;;;;;;;3.25;2.25;;;;;12.65;86.15;99845.91;5026692;28;9912;-65
2023/07/05 07:23:26;;;;;;;;;3.00;2.00;;;;;12.61;86.16;99863.63;5022582;28;9865;-68
2023/07/05 07:26:13;;;;;;;;;1.50;1.50;;;;;12.59;86.16;99868.41;5044169;28;9889;-67
2023/07/05 07:28:39;;;;;;;;;7.00;4.50;;;;;12.65;86.72;99869.38;5023124;28;10071;-67
2023/07/05 07:31:15;;;;;;;;;6.25;2.75;;;;;12.67;86.23;99870.78;5021559;28;10050;-66
2023/07/05 07:33:45;;;;;;;;;5.50;3.00;;;;;12.65;85.81;99856.72;5025234;28;9889;-67
2023/07/05 07:36:18;;;;;;;;;5.50;5.00;;;;;12.64;86.56;99890.16;5025624;28;10168;-66
2023/07/05 07:38:45;;;;;;;;;5.50;4.00;;;;;12.65;86.33;99842.38;5024945;28;10724;-66
2023/07/05 07:41:23;;;;;;;;;4.25;4.00;;;;;12.63;85.67;99870.41;5022110;28;10124;-67
2023/07/05 07:43:51;;;;;;;;;4.00;3.25;;;;;12.59;85.99;99914.31;5024262;28;9871;-64
2023/07/05 07:46:21;;;;;;;;;3.50;3.00;;;;;12.61;85.84;99926.53;5024636;28;10664;-65
2023/07/05 07:48:50;;;;;;;;;6.25;6.25;;;;;12.58;85.69;99934.28;5020313;28;9943;-65
2023/07/05 07:51:18;;;;;;;;;5.75;5.00;;;;;12.47;85.47;99922.38;5025183;28;10127;-66
2023/07/05 07:54:06;;;;;;;;;4.50;3.25;;;;;12.53;86.06;99956.56;5024545;28;9945;-65
2023/07/05 07:56:33;;;;;;;;;9.75;6.00;;;;;12.55;86.10;99948.22;5026993;28;10164;-65
2023/07/05 07:59:00;;;;;;;;;6.50;4.50;;;;;12.54;85.21;99960.91;5022638;28;10198;-66
2023/07/05 08:01:30;;;;;;;;;7.00;6.00;;;;;12.55;85.92;99994.13;5025490;28;11492;-65
2023/07/05 08:03:59;;;;;;;;;3.75;3.00;;;;;12.54;86.06;99982.50;5032096;28;10051;-65
2023/07/05 08:06:34;;;;;;;;;5.00;4.25;;;;;12.48;85.93;99991.53;5024684;28;10156;-65
2023/07/05 08:09:02;;;;;;;;;5.50;4.75;;;;;12.47;86.40;100008.75;5020510;28;10137;-64
2023/07/05 08:11:29;;;;;;;;;2.75;2.75;;;;;12.45;86.37;100031.63;5028430;28;9836;-64
2023/07/05 08:13:55;;;;;;;;;5.75;5.00;;;;;12.52;86.55;100044.00;5029379;28;10020;-64
2023/07/05 08:16:22;;;;;;;;;3.00;3.00;;;;;12.54;86.33;100041.06;5041681;28;10015;-66
2023/07/05 08:18:49;;;;;;;;;9.00;5.25;;;;;12.56;85.95;100055.19;5043831;28;9874;-65
2023/07/05 08:21:15;;;;;;;;;6.75;5.00;;;;;12.57;85.40;100067.63;5038157;28;10205;-62
2023/07/05 08:23:42;;;;;;;;;4.50;3.00;;;;;12.53;84.80;100078.03;5029241;28;10034;-65
2023/07/05 08:26:10;;;;;;;;;8.25;6.00;;;;;12.51;85.14;100092.81;5031259;28;10026;-65
2023/07/05 08:28:37;;;;;;;;;3.50;3.25;;;;;12.55;85.45;100121.00;5029727;28;10042;-65
2023/07/05 08:31:05;;;;;;;;;6.00;4.25;;;;;12.57;84.39;100135.13;5040795;28;9892;-65
2023/07/05 08:33:34;;;;;;;;;6.50;5.75;;;;;12.66;84.61;100141.84;5026601;28;10039;-65
2023/07/05 08:36:13;;;;;;;;;4.25;4.00;;;;;12.76;84.11;100162.94;5036596;28;10093;-65
2023/07/05 08:38:46;;;;;;;;;8.25;6.75;;;;;12.78;83.79;100180.56;5028636;28;10010;-65
2023/07/05 08:41:27;;;;;;;;;6.00;5.50;;;;;12.79;83.04;100184.91;5020146;28;9989;-64
2023/07/05 08:44:02;;;;;;;;;6.00;5.00;;;;;12.79;83.29;100194.91;5035898;28;10086;-65
2023/07/05 08:46:29;;;;;;;;;6.00;5.00;;;;;12.85;83.61;100202.94;5028180;28;9746;-65
2023/07/05 08:49:01;;;;;;;;;6.25;4.25;;;;;12.85;83.17;100215.63;5028897;28;9937;-64
2023/07/05 08:51:29;;;;;;;;;6.00;6.00;;;;;12.95;83.27;100234.81;5018433;28;9926;-67
2023/07/05 08:54:00;;;;;;;;;5.00;5.00;;;;;12.96;83.05;100230.22;5022227;28;9886;-67
2023/07/05 08:56:34;;;;;;;;;4.00;4.00;;;;;12.92;83.01;100239.84;5021654;28;10691;-65
2023/07/05 08:59:12;;;;;;;;;2.00;2.00;;;;;12.92;83.25;100243.34;5038979;28;9951;-67
2023/07/05 09:01:40;;;;;;;;;5.00;2.25;;;;;12.90;83.24;100271.66;5024166;28;9758;-67
2023/07/05 09:04:26;;;;;;;;;5.50;5.25;;;;;12.93;83.21;100282.84;5024553;28;9835;-67
2023/07/05 09:07:06;;;;;;;;;3.00;2.00;;;;;12.94;83.10;100305.28;5028382;28;9935;-67
2023/07/05 09:09:49;;;;;;;;;3.50;2.00;;;;;12.83;82.78;100302.25;5019660;28;9761;-67
2023/07/05 09:12:54;;;;;;;;;10.25;5.75;;;;;12.85;83.12;100308.28;5021082;28;9741;-67
2023/07/05 09:15:25;;;;;;;;;3.25;3.00;;;;;12.83;83.06;100323.03;5011099;28;9834;-67
2023/07/05 09:18:02;;;;;;;;;2.75;2.00;;;;;12.87;83.30;100346.69;5035863;28;10529;-65
2023/07/05 09:20:51;;;;;;;;;2.25;2.00;;;;;12.91;83.27;100349.78;5027468;28;9959;-65
2023/07/05 09:23:25;;;;;;;;;8.25;3.75;;;;;12.92;83.50;100378.44;5029233;28;10481;-66
2023/07/05 09:26:00;;;;;;;;;2.50;2.00;;;;;13.01;83.38;100387.94;5030665;28;10028;-67
2023/07/05 09:28:59;;;;;;;;;5.00;3.00;;;;;13.07;83.14;100391.63;5024300;28;10011;-66
2023/07/05 09:31:27;;;;;;;;;5.00;3.00;;;;;13.06;83.12;100395.38;5014703;28;9930;-66
2023/07/05 09:34:34;;;;;;;;;3.25;3.00;;;;;13.03;83.19;100412.03;5028934;28;9946;-68
2023/07/05 09:37:10;;;;;;;;;2.50;2.50;;;;;13.07;84.13;100429.44;5024000;28;9768;-66
2023/07/05 09:40:02;;;;;;;;;3.50;3.00;;;;;13.07;83.36;100429.44;5023031;28;9920;-67
2023/07/05 09:42:36;;;;;;;;;4.75;4.00;;;;;13.10;83.74;100462.25;5021980;28;9840;-67
2023/07/05 09:45:03;;;;;;;;;5.25;3.50;;;;;13.15;83.33;100474.28;5026920;28;9762;-67
2023/07/05 09:47:29;;;;;;;;;5.75;2.75;;;;;13.13;83.11;100471.81;5028357;28;9913;-62
2023/07/05 09:49:56;;;;;;;;;4.00;3.25;;;;;13.12;82.49;100486.34;5025276;28;9992;-65
2023/07/05 09:52:25;;;;;;;;;6.00;3.50;;;;;13.15;82.50;100490.50;5021902;28;10341;-65
2023/07/05 09:54:59;;;;;;;;;3.00;3.00;;;;;13.13;82.74;100496.13;5046351;28;9772;-64
2023/07/05 09:57:26;;;;;;;;;7.50;3.75;;;;;13.13;82.43;100498.00;5048331;28;9757;-65
2023/07/05 09:59:53;;;;;;;;;7.75;6.00;;;;;13.13;82.80;100511.53;5023373;28;9869;-65
2023/07/05 10:02:28;;;;;;;;;3.50;3.00;;;;;13.12;82.75;100526.88;5024492;28;9852;-64
2023/07/05 10:04:58;;;;;;;;;6.00;4.25;;;;;13.17;83.13;100527.09;5027846;28;10637;-65
2023/07/05 10:07:29;;;;;;;;;3.50;3.00;;;;;13.23;83.04;100536.22;5031056;28;10563;-64
2023/07/05 10:10:07;;;;;;;;;7.00;4.00;;;;;13.29;83.03;100541.56;5023795;28;9666;-64
2023/07/05 10:12:36;;;;;;;;;4.25;3.50;;;;;13.41;82.73;100546.25;5033290;28;9693;-63
2023/07/05 10:15:22;;;;;;;;;4.50;4.50;;;;;13.35;82.00;100565.00;5030847;28;9825;-65
2023/07/05 10:17:53;;;;;;;;;5.00;3.00;;;;;13.45;82.32;100574.50;5030842;28;9609;-67
2023/07/05 10:20:23;;;;;;;;;6.25;5.00;;;;;13.48;82.77;100584.88;5048903;28;9704;-66
2023/07/05 10:23:05;;;;;;;;;4.25;3.50;;;;;13.58;82.56;100587.94;5032375;28;9770;-64
2023/07/05 10:25:40;;;;;;;;;2.75;2.00;;;;;13.60;82.53;100600.19;5062860;28;9453;-66
2023/07/05 10:28:12;;;;;;;;;6.25;3.50;;;;;13.62;82.56;100613.50;5054078;28;9623;-66
2023/07/05 10:30:53;;;;;;;;;3.00;3.00;;;;;13.66;82.26;100616.59;5053365;28;9524;-66
2023/07/05 10:33:27;;;;;;;;;7.50;5.25;;;;;13.70;82.69;100642.16;5028772;28;9570;-64
2023/07/05 10:36:02;;;;;;;;;3.00;3.00;;;;;13.69;82.06;100644.00;5017662;28;9704;-65
2023/07/05 10:38:50;;;;;;;;;2.75;2.75;;;;;13.71;82.01;100646.53;5028272;28;9677;-67
2023/07/05 10:41:19;;;;;;;;;4.50;3.50;;;;;13.69;82.34;100662.13;5038681;28;9558;-63
2023/07/05 10:44:10;;;;;;;;;2.00;2.00;;;;;13.66;81.95;100659.88;5031233;28;9694;-62
2023/07/05 10:46:38;;;;;;;;;5.00;4.00;;;;;13.69;82.05;100668.34;5031831;28;9568;-65
2023/07/05 10:49:12;;;;;;;;;6.00;3.00;;;;;13.77;81.89;100680.78;5036959;28;9765;-64
2023/07/05 10:51:42;;;;;;;;;5.50;2.50;;;;;13.89;81.68;100680.91;5048920;28;9585;-64
2023/07/05 10:54:11;;;;;;;;;4.75;4.00;;;;;13.95;81.63;100696.28;5020587;28;9620;-64
2023/07/05 10:56:41;;;;;;;;;6.50;5.25;;;;;13.94;81.77;100710.88;5023596;28;9601;-64
2023/07/05 10:59:25;;;;;;;;;7.50;4.25;;;;;13.88;81.75;100701.75;5016768;28;10414;-63
2023/07/05 11:01:57;;;;;;;;;7.00;4.00;;;;;13.84;82.02;100712.16;5036803;28;9778;-65
2023/07/05 11:04:28;;;;;;;;;2.00;2.00;;;;;13.95;81.75;100712.53;5053317;28;9806;-63
2023/07/05 11:07:06;;;;;;;;;5.00;5.00;;;;;14.00;81.43;100721.63;5052606;28;10484;-66
2023/07/05 11:09:35;;;;;;;;;5.75;5.50;;;;;14.01;81.94;100728.69;5063657;28;10443;-66
2023/07/05 11:12:08;;;;;;;;;2.75;2.00;;;;;14.03;81.62;100731.19;5031016;28;9807;-67
2023/07/05 11:14:35;;;;;;;;;6.75;4.25;;;;;14.05;81.57;100734.50;5060025;28;9513;-66
2023/07/05 11:17:04;;;;;;;;;6.50;3.00;;;;;14.13;81.51;100742.34;5048476;28;9920;-67
2023/07/05 11:19:31;;;;;;;;;3.00;3.00;;;;;14.04;80.33;100760.75;5038296;28;9578;-66
2023/07/05 11:21:58;;;;;;;;;5.75;4.25;;;;;14.01;80.74;100765.75;5032370;28;9668;-64
2023/07/05 11:24:30;;;;;;;;;4.25;3.00;;;;;13.94;81.04;100773.94;5013613;28;9610;-63
2023/07/05 11:26:59;;;;;;;;;5.50;5.00;;;;;13.91;81.78;100787.06;5031846;28;9660;-65
2023/07/05 11:29:31;;;;;;;;;6.00;6.00;;;;;13.97;81.58;100800.53;5040498;28;9611;-67
2023/07/05 11:32:01;;;;;;;;;2.50;2.50;;;;;13.93;81.55;100803.91;5027925;28;10264;-66
2023/07/05 11:34:29;;;;;;;;;6.75;5.00;;;;;13.99;81.89;100805.75;5030783;28;9693;-68
2023/07/05 11:37:04;;;;;;;;;5.75;4.25;;;;;14.06;81.17;100807.38;5028784;28;9690;-66
2023/07/05 11:39:32;;;;;;;;;3.00;3.00;;;;;14.10;81.71;100813.19;5031026;28;9517;-64
2023/07/05 11:42:14;;;;;;;;;7.25;5.50;;;;;14.10;81.36;100816.72;5031359;28;9520;-64
2023/07/05 11:44:42;;;;;;;;;6.25;3.00;;;;;14.09;81.38;100823.16;5032008;28;9601;-63
2023/07/05 11:47:10;;;;;;;;;5.25;3.75;;;;;14.13;81.48;100834.38;5029160;28;9803;-63
2023/07/05 11:49:42;;;;;;;;;3.75;3.75;;;;;14.10;81.43;100840.25;5028349;28;9517;-64